^^
Datos históricos de la estación: Murcia-Puente Tocinos
Diario Informe para Julio 5, 2019 Unidades:  Ambas    Inglés   Métrico
Diario Semanal Mensual Anual Configurable
  Máximo: Mínimo: Media:
Temperatura: 91.2 °F /  32.9 °C 74.1 °F /  23.4 °C 81.7 °F /  27.6 °C
Punto de rocio: 71.2 °F /  21.8 °C 65.5 °F /  18.6 °C 68.2 °F /  20.1 °C
Humedad: 84% 43% 65%
Velocidad viento: 13mph /  20.9km/h - 5.2mph /  8.4km/h
Racha viento: 22mph /  35.4km/h - -
Viento- - SE
Presión: 30 in /  1015.5 hPa 29.9 in /  1011.2 hPa -
Precipitación: 0 in /  0.0 mm    
Historical Graphs
 
 
Tabla de datos para Julio 5, 2019
Hora Temperatura Punto de rocio Presión Viento Velocidad viento Racha viento Humedad Intensidad lluvia(por hora) Nubes
00:00 77.4 °F /  25.2 °C 70.7 °F /  21.5 °C 30in /  1015.4hPa NE 5mph /  8.0km/h 6mph /  9.7km/h 80% 0in /  0.0mm CLR
00:05 77.4 °F /  25.2 °C 70.7 °F /  21.5 °C 30in /  1015.5hPa NE 5mph /  8.0km/h 6mph /  9.7km/h 80% 0in /  0.0mm CLR
00:10 77.2 °F /  25.1 °C 70.5 °F /  21.4 °C 30in /  1015.5hPa ENE 3.6mph /  5.8km/h 4.7mph /  7.6km/h 80% 0in /  0.0mm CLR
00:15 77.2 °F /  25.1 °C 70.5 °F /  21.4 °C 30in /  1015.5hPa NE 3mph /  4.8km/h 5mph /  8.0km/h 80% 0in /  0.0mm CLR
00:20 77.2 °F /  25.1 °C 70.5 °F /  21.4 °C 30in /  1015.4hPa NE 2mph /  3.2km/h 5mph /  8.0km/h 80% 0in /  0.0mm CLR
00:25 77.2 °F /  25.1 °C 70.5 °F /  21.4 °C 30in /  1015.4hPa NNE 2.9mph /  4.7km/h 3.5mph /  5.6km/h 80% 0in /  0.0mm CLR
00:30 77.4 °F /  25.2 °C 70.7 °F /  21.5 °C 30in /  1015.4hPa NNW 2.9mph /  4.7km/h 3.5mph /  5.6km/h 80% 0in /  0.0mm CLR
00:35 77.4 °F /  25.2 °C 70.7 °F /  21.5 °C 30in /  1015.3hPa North 2mph /  3.2km/h 4mph /  6.4km/h 80% 0in /  0.0mm CLR
00:40 77.4 °F /  25.2 °C 70.7 °F /  21.5 °C 30in /  1015.3hPa NNE 1.8mph /  2.9km/h 3.5mph /  5.6km/h 80% 0in /  0.0mm CLR
00:45 77.4 °F /  25.2 °C 70.7 °F /  21.5 °C 30in /  1015.3hPa NE 2mph /  3.2km/h 5mph /  8.0km/h 80% 0in /  0.0mm CLR
00:50 77.2 °F /  25.1 °C 70.9 °F /  21.6 °C 30in /  1015.4hPa ENE 2.9mph /  4.7km/h 4.6mph /  7.4km/h 81% 0in /  0.0mm CLR
00:55 77 °F /  25.0 °C 71.1 °F /  21.7 °C 30in /  1015.4hPa NE 2mph /  3.2km/h 6mph /  9.7km/h 82% 0in /  0.0mm CLR
01:00 77 °F /  25.0 °C 71.1 °F /  21.7 °C 30in /  1015.4hPa North 3mph /  4.8km/h 5mph /  8.0km/h 82% 0in /  0.0mm CLR
01:05 76.8 °F /  24.9 °C 70.9 °F /  21.6 °C 30in /  1015.1hPa NNW 3mph /  4.8km/h 5mph /  8.0km/h 82% 0in /  0.0mm CLR
01:10 76.8 °F /  24.9 °C 70.9 °F /  21.6 °C 30in /  1015.1hPa North 2.9mph /  4.7km/h 2.3mph /  3.7km/h 82% 0in /  0.0mm CLR
01:15 76.8 °F /  24.9 °C 70.9 °F /  21.6 °C 30in /  1015.1hPa NNW 2mph /  3.2km/h 6mph /  9.7km/h 82% 0in /  0.0mm CLR
01:20 76.8 °F /  24.9 °C 71.2 °F /  21.8 °C 30in /  1015.0hPa NNE 2.9mph /  4.7km/h 6.9mph /  11.1km/h 83% 0in /  0.0mm CLR
01:25 76.6 °F /  24.8 °C 71.1 °F /  21.7 °C 30in /  1015.0hPa North 2mph /  3.2km/h 7mph /  11.3km/h 83% 0in /  0.0mm CLR
01:30 76.6 °F /  24.8 °C 71.1 °F /  21.7 °C 30in /  1015.0hPa NNE 3mph /  4.8km/h 5mph /  8.0km/h 83% 0in /  0.0mm CLR
01:35 76.5 °F /  24.7 °C 71.2 °F /  21.8 °C 30in /  1014.9hPa NNE 3mph /  4.8km/h 5mph /  8.0km/h 84% 0in /  0.0mm CLR
01:40 76.5 °F /  24.7 °C 71.2 °F /  21.8 °C 30in /  1014.9hPa NNE 3.1mph /  5.0km/h 2.3mph /  3.7km/h 84% 0in /  0.0mm CLR
01:45 76.5 °F /  24.7 °C 71.2 °F /  21.8 °C 30in /  1014.9hPa NNE 3mph /  4.8km/h 5mph /  8.0km/h 84% 0in /  0.0mm CLR
01:50 76.3 °F /  24.6 °C 71.1 °F /  21.7 °C 30in /  1014.9hPa NNE 2mph /  3.2km/h 5mph /  8.0km/h 84% 0in /  0.0mm CLR
01:55 76.3 °F /  24.6 °C 71.1 °F /  21.7 °C 30in /  1014.9hPa NNE 2mph /  3.2km/h 3mph /  4.8km/h 84% 0in /  0.0mm CLR
02:00 76.3 °F /  24.6 °C 71.1 °F /  21.7 °C 30in /  1014.9hPa North 2mph /  3.2km/h 7mph /  11.3km/h 84% 0in /  0.0mm CLR
02:05 76.3 °F /  24.6 °C 71.1 °F /  21.7 °C 30in /  1014.7hPa NW 2mph /  3.2km/h 7mph /  11.3km/h 84% 0in /  0.0mm CLR
02:10 76.1 °F /  24.5 °C 70.9 °F /  21.6 °C 30in /  1014.7hPa WNW 5mph /  8.0km/h 8mph /  12.9km/h 84% 0in /  0.0mm CLR
02:15 75.9 °F /  24.4 °C 70.7 °F /  21.5 °C 30in /  1014.7hPa WNW 5mph /  8.0km/h 5mph /  8.0km/h 84% 0in /  0.0mm CLR
02:20 75.9 °F /  24.4 °C 70.7 °F /  21.5 °C 30in /  1014.6hPa NW 2mph /  3.2km/h 6mph /  9.7km/h 84% 0in /  0.0mm CLR
02:25 75.9 °F /  24.4 °C 70.7 °F /  21.5 °C 30in /  1014.6hPa NNE 2.9mph /  4.7km/h 5.8mph /  9.3km/h 84% 0in /  0.0mm CLR
02:30 75.9 °F /  24.4 °C 70.3 °F /  21.3 °C 30in /  1014.6hPa NNW 3.6mph /  5.8km/h 2.4mph /  3.9km/h 83% 0in /  0.0mm CLR
02:35 75.9 °F /  24.4 °C 70.3 °F /  21.3 °C 30in /  1014.5hPa NW 3mph /  4.8km/h 5mph /  8.0km/h 83% 0in /  0.0mm CLR
02:40 75.7 °F /  24.3 °C 70.2 °F /  21.2 °C 30in /  1014.5hPa NW 2.9mph /  4.7km/h 5.8mph /  9.3km/h 83% 0in /  0.0mm CLR
02:45 75.7 °F /  24.3 °C 70.2 °F /  21.2 °C 30in /  1014.5hPa WNW 2mph /  3.2km/h 6mph /  9.7km/h 83% 0in /  0.0mm CLR
02:50 75.9 °F /  24.4 °C 70 °F /  21.1 °C 30in /  1014.4hPa WNW 2mph /  3.2km/h 5mph /  8.0km/h 82% 0in /  0.0mm CLR
02:55 75.9 °F /  24.4 °C 70 °F /  21.1 °C 30in /  1014.4hPa WNW 2mph /  3.2km/h 5mph /  8.0km/h 82% 0in /  0.0mm CLR
03:00 75.9 °F /  24.4 °C 70 °F /  21.1 °C 30in /  1014.4hPa West 2mph /  3.2km/h 6mph /  9.7km/h 82% 0in /  0.0mm CLR
03:05 75.9 °F /  24.4 °C 70 °F /  21.1 °C 30in /  1014.5hPa SW 2mph /  3.2km/h 6mph /  9.7km/h 82% 0in /  0.0mm CLR
03:10 75.9 °F /  24.4 °C 70 °F /  21.1 °C 30in /  1014.5hPa WSW 2.9mph /  4.7km/h 2.3mph /  3.7km/h 82% 0in /  0.0mm CLR
03:15 76.1 °F /  24.5 °C 69.8 °F /  21.0 °C 30in /  1014.5hPa West 2mph /  3.2km/h 6mph /  9.7km/h 81% 0in /  0.0mm CLR
03:20 76.1 °F /  24.5 °C 69.8 °F /  21.0 °C 29.9in /  1014.1hPa NW 2.9mph /  4.7km/h   81% 0in /  0.0mm CLR
03:25 76.1 °F /  24.5 °C 69.8 °F /  21.0 °C 29.9in /  1014.1hPa WNW 2mph /  3.2km/h 5mph /  8.0km/h 81% 0in /  0.0mm CLR
03:30 75.9 °F /  24.4 °C 69.6 °F /  20.9 °C 29.9in /  1014.1hPa WNW 2.4mph /  3.9km/h 5.8mph /  9.3km/h 81% 0in /  0.0mm CLR
03:35 75.9 °F /  24.4 °C 70 °F /  21.1 °C 29.9in /  1013.9hPa WNW 2mph /  3.2km/h 7mph /  11.3km/h 82% 0in /  0.0mm CLR
03:40 75.7 °F /  24.3 °C 70 °F /  21.1 °C 29.9in /  1013.9hPa West 4mph /  6.4km/h 6.9mph /  11.1km/h 82% 0in /  0.0mm CLR
03:45 75.7 °F /  24.3 °C 69.8 °F /  21.0 °C 29.9in /  1013.9hPa West 5mph /  8.0km/h 7mph /  11.3km/h 82% 0in /  0.0mm CLR
03:50 75.6 °F /  24.2 °C 69.6 °F /  20.9 °C 29.9in /  1014.0hPa West 4mph /  6.4km/h 4.3mph /  6.9km/h 82% 0in /  0.0mm CLR
03:55 75.6 °F /  24.2 °C 70 °F /  21.1 °C 29.9in /  1014.0hPa WNW 5mph /  8.0km/h 6mph /  9.7km/h 83% 0in /  0.0mm CLR
04:00 75.6 °F /  24.2 °C 70 °F /  21.1 °C 29.9in /  1014.0hPa WNW 2mph /  3.2km/h 5mph /  8.0km/h 83% 0in /  0.0mm CLR
04:05 75.6 °F /  24.2 °C 70 °F /  21.1 °C 30in /  1014.5hPa WSW 2mph /  3.2km/h 6mph /  9.7km/h 83% 0in /  0.0mm CLR
04:10 75.6 °F /  24.2 °C 69.6 °F /  20.9 °C 30in /  1014.5hPa SW 3.6mph /  5.8km/h 4.6mph /  7.4km/h 82% 0in /  0.0mm CLR
04:15 75.6 °F /  24.2 °C 69.6 °F /  20.9 °C 30in /  1014.5hPa WSW 3mph /  4.8km/h 5mph /  8.0km/h 82% 0in /  0.0mm CLR
04:20 75.6 °F /  24.2 °C 69.6 °F /  20.9 °C 29.9in /  1014.1hPa West 2mph /  3.2km/h 2.9mph /  4.7km/h 82% 0in /  0.0mm CLR
04:25 75.6 °F /  24.2 °C 69.3 °F /  20.7 °C 29.9in /  1014.1hPa West 2mph /  3.2km/h 5mph /  8.0km/h 81% 0in /  0.0mm CLR
04:30 75.6 °F /  24.2 °C 69.3 °F /  20.7 °C 29.9in /  1014.1hPa SW 2.9mph /  4.7km/h   81% 0in /  0.0mm CLR
04:35 75.6 °F /  24.2 °C 69.3 °F /  20.7 °C 29.9in /  1013.9hPa WSW 2mph /  3.2km/h 4mph /  6.4km/h 81% 0in /  0.0mm CLR
04:40 75.7 °F /  24.3 °C 69.4 °F /  20.8 °C 29.9in /  1013.9hPa West 1mph /  1.6km/h 3mph /  4.8km/h 81% 0in /  0.0mm CLR
04:45 75.7 °F /  24.3 °C 69.4 °F /  20.8 °C 29.9in /  1013.9hPa NW 1mph /  1.6km/h 4mph /  6.4km/h 81% 0in /  0.0mm CLR
04:50 75.6 °F /  24.2 °C 69.3 °F /  20.7 °C 29.9in /  1014.0hPa West 1.8mph /  2.9km/h 3.5mph /  5.6km/h 81% 0in /  0.0mm CLR
04:55 75.6 °F /  24.2 °C 69.3 °F /  20.7 °C 29.9in /  1014.0hPa WSW 2mph /  3.2km/h 6mph /  9.7km/h 81% 0in /  0.0mm CLR
05:00 75.4 °F /  24.1 °C 69.1 °F /  20.6 °C 29.9in /  1014.0hPa WSW 3mph /  4.8km/h 7mph /  11.3km/h 81% 0in /  0.0mm CLR
05:05 75.4 °F /  24.1 °C 69.1 °F /  20.6 °C 29.9in /  1013.9hPa SW 3mph /  4.8km/h 6mph /  9.7km/h 81% 0in /  0.0mm CLR
05:10 75.4 °F /  24.1 °C 69.1 °F /  20.6 °C 29.9in /  1013.9hPa WSW 3.6mph /  5.8km/h 3.5mph /  5.6km/h 81% 0in /  0.0mm CLR
05:15 75.4 °F /  24.1 °C 69.1 °F /  20.6 °C 29.9in /  1013.9hPa SW 3mph /  4.8km/h 5mph /  8.0km/h 81% 0in /  0.0mm CLR
05:20 75.2 °F /  24.0 °C 68.5 °F /  20.3 °C 29.9in /  1013.9hPa SSW 3mph /  4.8km/h 6mph /  9.7km/h 80% 0in /  0.0mm CLR
05:25 75 °F /  23.9 °C 68.4 °F /  20.2 °C 29.9in /  1013.9hPa South 3mph /  4.8km/h 7mph /  11.3km/h 80% 0in /  0.0mm CLR
05:30 75 °F /  23.9 °C 68.4 °F /  20.2 °C 29.9in /  1013.9hPa SSE 4.3mph /  6.9km/h 4.6mph /  7.4km/h 80% 0in /  0.0mm CLR
05:35 74.8 °F /  23.8 °C 68.4 °F /  20.2 °C 29.9in /  1013.7hPa South 5mph /  8.0km/h 5mph /  8.0km/h 80% 0in /  0.0mm CLR
05:40 74.8 °F /  23.8 °C 68.4 °F /  20.2 °C 29.9in /  1013.7hPa SSE 3.1mph /  5.0km/h 5.8mph /  9.3km/h 80% 0in /  0.0mm CLR
05:45 74.8 °F /  23.8 °C 68.4 °F /  20.2 °C 29.9in /  1013.7hPa SSE 3mph /  4.8km/h 6mph /  9.7km/h 80% 0in /  0.0mm CLR
05:50 74.8 °F /  23.8 °C 68.4 °F /  20.2 °C 29.9in /  1014.1hPa South 2mph /  3.2km/h 6mph /  9.7km/h 80% 0in /  0.0mm CLR
05:55 74.8 °F /  23.8 °C 68.4 °F /  20.2 °C 29.9in /  1014.1hPa South 2mph /  3.2km/h 5mph /  8.0km/h 80% 0in /  0.0mm CLR
06:00 74.8 °F /  23.8 °C 67.8 °F /  19.9 °C 29.9in /  1014.1hPa SSW 2mph /  3.2km/h 3mph /  4.8km/h 79% 0in /  0.0mm CLR
06:05 74.8 °F /  23.8 °C 67.8 °F /  19.9 °C 29.9in /  1014.1hPa SSW 2mph /  3.2km/h 5mph /  8.0km/h 79% 0in /  0.0mm CLR
06:10 74.8 °F /  23.8 °C 67.8 °F /  19.9 °C 29.9in /  1014.1hPa SSW 1.8mph /  2.9km/h   79% 0in /  0.0mm CLR
06:15 74.8 °F /  23.8 °C 67.8 °F /  19.9 °C 29.9in /  1014.1hPa SW 2mph /  3.2km/h 6mph /  9.7km/h 79% 0in /  0.0mm CLR
06:20 75 °F /  23.9 °C 67.6 °F /  19.8 °C 30in /  1014.2hPa SW 2.9mph /  4.7km/h 6.9mph /  11.1km/h 78% 0in /  0.0mm CLR
06:25 75 °F /  23.9 °C 67.6 °F /  19.8 °C 30in /  1014.2hPa SW 2mph /  3.2km/h 7mph /  11.3km/h 78% 0in /  0.0mm CLR
06:30 75 °F /  23.9 °C 67.6 °F /  19.8 °C 30in /  1014.2hPa WNW 3.6mph /  5.8km/h 4.6mph /  7.4km/h 78% 0in /  0.0mm CLR
06:35 74.8 °F /  23.8 °C 67.5 °F /  19.7 °C 30in /  1014.3hPa West 3mph /  4.8km/h 6mph /  9.7km/h 78% 0in /  0.0mm CLR
06:40 74.7 °F /  23.7 °C 67.3 °F /  19.6 °C 30in /  1014.3hPa West 3mph /  4.8km/h 6mph /  9.7km/h 78% 0in /  0.0mm CLR
06:45 74.5 °F /  23.6 °C 67.3 °F /  19.6 °C 30in /  1014.3hPa WNW 3mph /  4.8km/h 3mph /  4.8km/h 78% 0in /  0.0mm CLR
06:50 74.5 °F /  23.6 °C 67.3 °F /  19.6 °C 30in /  1014.5hPa WNW 1mph /  1.6km/h 5mph /  8.0km/h 78% 0in /  0.0mm CLR
06:55 74.3 °F /  23.5 °C 66.9 °F /  19.4 °C 30in /  1014.5hPa WNW 1mph /  1.6km/h 5mph /  8.0km/h 78% 0in /  0.0mm CLR
07:00 74.3 °F /  23.5 °C 66.9 °F /  19.4 °C 30in /  1014.5hPa West 2mph /  3.2km/h 4mph /  6.4km/h 78% 0in /  0.0mm CLR
07:05 74.5 °F /  23.6 °C 67.3 °F /  19.6 °C 30in /  1014.9hPa South 2.4mph /  3.9km/h 5.8mph /  9.3km/h 78% 0in /  0.0mm CLR
07:10 74.5 °F /  23.6 °C 67.3 °F /  19.6 °C 30in /  1014.9hPa SSE 3.6mph /  5.8km/h 6.9mph /  11.1km/h 78% 0in /  0.0mm CLR
07:15 74.3 °F /  23.5 °C 67.5 °F /  19.7 °C 30in /  1014.9hPa South 3mph /  4.8km/h 7mph /  11.3km/h 79% 0in /  0.0mm CLR
07:20 74.1 °F /  23.4 °C 67.3 °F /  19.6 °C 30in /  1014.8hPa South 3.1mph /  5.0km/h 4.6mph /  7.4km/h 79% 0in /  0.0mm CLR
07:25 74.1 °F /  23.4 °C 67.3 °F /  19.6 °C 30in /  1014.8hPa South 3mph /  4.8km/h 5mph /  8.0km/h 79% 0in /  0.0mm CLR
07:30 74.1 °F /  23.4 °C 67.3 °F /  19.6 °C 30in /  1014.8hPa South 2mph /  3.2km/h 2.3mph /  3.7km/h 79% 0in /  0.0mm CLR
07:35 74.3 °F /  23.5 °C 66.9 °F /  19.4 °C 30in /  1015.0hPa SSW 2mph /  3.2km/h 4.6mph /  7.4km/h 78% 0in /  0.0mm CLR
07:40 74.3 °F /  23.5 °C 66.9 °F /  19.4 °C 30in /  1015.0hPa West 2.9mph /  4.7km/h 4.6mph /  7.4km/h 78% 0in /  0.0mm CLR
07:45 74.5 °F /  23.6 °C 67.3 °F /  19.6 °C 30in /  1015.0hPa WNW 2mph /  3.2km/h 5mph /  8.0km/h 78% 0in /  0.0mm CLR
07:50 74.7 °F /  23.7 °C 67.3 °F /  19.6 °C 30in /  1015.0hPa NW 2mph /  3.2km/h 1.2mph /  1.9km/h 78% 0in /  0.0mm CLR
07:55 74.8 °F /  23.8 °C 67.1 °F /  19.5 °C 30in /  1015.0hPa NW 2mph /  3.2km/h 5mph /  8.0km/h 77% 0in /  0.0mm CLR
08:00 74.8 °F /  23.8 °C 67.1 °F /  19.5 °C 30in /  1015.0hPa NW 2mph /  3.2km/h 5mph /  8.0km/h 77% 0in /  0.0mm CLR
08:05 75 °F /  23.9 °C 66.9 °F /  19.4 °C 30in /  1014.9hPa NW 2mph /  3.2km/h 5mph /  8.0km/h 76% 0in /  0.0mm CLR
08:10 75 °F /  23.9 °C 66.6 °F /  19.2 °C 30in /  1014.9hPa NW 2mph /  3.2km/h 5mph /  8.0km/h 75% 0in /  0.0mm CLR
08:15 75.2 °F /  24.0 °C 66.7 °F /  19.3 °C 30in /  1014.9hPa WNW 2mph /  3.2km/h 3mph /  4.8km/h 75% 0in /  0.0mm CLR
08:20 75.4 °F /  24.1 °C 66.6 °F /  19.2 °C 30in /  1015.2hPa WNW 2mph /  3.2km/h 5mph /  8.0km/h 74% 0in /  0.0mm CLR
08:25 75.6 °F /  24.2 °C 66.7 °F /  19.3 °C 30in /  1015.2hPa WNW 2mph /  3.2km/h 5mph /  8.0km/h 74% 0in /  0.0mm CLR
08:30 75.6 °F /  24.2 °C 66.7 °F /  19.3 °C 30in /  1015.2hPa WNW 2.4mph /  3.9km/h 3.5mph /  5.6km/h 74% 0in /  0.0mm CLR
08:35 75.6 °F /  24.2 °C 66.4 °F /  19.1 °C 30in /  1015.0hPa WNW 2.4mph /  3.9km/h 4.6mph /  7.4km/h 73% 0in /  0.0mm CLR
08:40 75.6 °F /  24.2 °C 66.4 °F /  19.1 °C 30in /  1015.0hPa West 2.9mph /  4.7km/h 5.8mph /  9.3km/h 73% 0in /  0.0mm CLR
08:45 75.7 °F /  24.3 °C 66.6 °F /  19.2 °C 30in /  1015.0hPa WNW 2mph /  3.2km/h 6mph /  9.7km/h 73% 0in /  0.0mm CLR
08:50 75.9 °F /  24.4 °C 66.6 °F /  19.2 °C 30in /  1015.1hPa West 2.4mph /  3.9km/h 2.3mph /  3.7km/h 73% 0in /  0.0mm CLR
08:55 76.1 °F /  24.5 °C 66.7 °F /  19.3 °C 30in /  1015.1hPa West 2mph /  3.2km/h 5mph /  8.0km/h 73% 0in /  0.0mm CLR
09:00 76.3 °F /  24.6 °C 66.9 °F /  19.4 °C 30in /  1015.1hPa WNW 2mph /  3.2km/h 5mph /  8.0km/h 73% 0in /  0.0mm CLR
09:05 76.5 °F /  24.7 °C 66.7 °F /  19.3 °C 30in /  1015.1hPa NW 2mph /  3.2km/h 5mph /  8.0km/h 72% 0in /  0.0mm CLR
09:10 76.6 °F /  24.8 °C 66.9 °F /  19.4 °C 30in /  1015.1hPa NW 2.4mph /  3.9km/h   72% 0in /  0.0mm CLR
09:15 76.8 °F /  24.9 °C 66.7 °F /  19.3 °C 30in /  1015.1hPa NW 2mph /  3.2km/h 2mph /  3.2km/h 71% 0in /  0.0mm CLR
09:20 77.2 °F /  25.1 °C 66.9 °F /  19.4 °C 30in /  1015.2hPa SSE 1.4mph /  2.3km/h 2.4mph /  3.9km/h 71% 0in /  0.0mm CLR
09:25 77.4 °F /  25.2 °C 66.7 °F /  19.3 °C 30in /  1015.2hPa SW 1mph /  1.6km/h 5mph /  8.0km/h 70% 0in /  0.0mm CLR
09:30 77.7 °F /  25.4 °C 67.3 °F /  19.6 °C 30in /  1015.2hPa NW 2mph /  3.2km/h 3.5mph /  5.6km/h 70% 0in /  0.0mm CLR
09:35 77.9 °F /  25.5 °C 66.9 °F /  19.4 °C 30in /  1015.3hPa SSW 2mph /  3.2km/h 7mph /  11.3km/h 69% 0in /  0.0mm CLR
09:40 77.7 °F /  25.4 °C 66.7 °F /  19.3 °C 30in /  1015.3hPa SW 4mph /  6.4km/h 6.9mph /  11.1km/h 69% 0in /  0.0mm CLR
09:45 77.7 °F /  25.4 °C 66.7 °F /  19.3 °C 30in /  1015.3hPa South 5mph /  8.0km/h 7mph /  11.3km/h 69% 0in /  0.0mm CLR
09:50 78.1 °F /  25.6 °C 66.9 °F /  19.4 °C 30in /  1015.1hPa South 5mph /  8.0km/h 7mph /  11.3km/h 69% 0in /  0.0mm CLR
09:55 78.3 °F /  25.7 °C 67.3 °F /  19.6 °C 30in /  1015.1hPa South 5mph /  8.0km/h 7mph /  11.3km/h 69% 0in /  0.0mm CLR
10:00 78.1 °F /  25.6 °C 67.1 °F /  19.5 °C 30in /  1015.1hPa South 5mph /  8.0km/h 6mph /  9.7km/h 69% 0in /  0.0mm CLR
10:05 78.4 °F /  25.8 °C 67.5 °F /  19.7 °C 30in /  1015.0hPa SE 5mph /  8.0km/h 5mph /  8.0km/h 69% 0in /  0.0mm CLR
10:10 79 °F /  26.1 °C 67.5 °F /  19.7 °C 30in /  1015.0hPa SSE 2mph /  3.2km/h 8mph /  12.9km/h 68% 0in /  0.0mm CLR
10:15 79 °F /  26.1 °C 67.5 °F /  19.7 °C 30in /  1015.0hPa WSW 2mph /  3.2km/h 7mph /  11.3km/h 68% 0in /  0.0mm CLR
10:20 79 °F /  26.1 °C 67.5 °F /  19.7 °C 30in /  1015.1hPa SSW 5mph /  8.0km/h 7mph /  11.3km/h 68% 0in /  0.0mm CLR
10:25 79.2 °F /  26.2 °C 67.6 °F /  19.8 °C 30in /  1015.1hPa SSE 5mph /  8.0km/h 7mph /  11.3km/h 68% 0in /  0.0mm CLR
10:30 79.5 °F /  26.4 °C 67.6 °F /  19.8 °C 30in /  1015.1hPa SSE 2mph /  3.2km/h 9mph /  14.5km/h 67% 0in /  0.0mm CLR
10:35 79.5 °F /  26.4 °C 67.3 °F /  19.6 °C 30in /  1015.2hPa SSE 2mph /  3.2km/h 8mph /  12.9km/h 66% 0in /  0.0mm CLR
10:40 79.5 °F /  26.4 °C 67.3 °F /  19.6 °C 30in /  1015.2hPa South 5mph /  8.0km/h 8mph /  12.9km/h 66% 0in /  0.0mm CLR
10:45 79.9 °F /  26.6 °C 67.5 °F /  19.7 °C 30in /  1015.2hPa South 5mph /  8.0km/h 6mph /  9.7km/h 66% 0in /  0.0mm CLR
10:50 80.2 °F /  26.8 °C 67.5 °F /  19.7 °C 30in /  1015.1hPa SW 2.9mph /  4.7km/h 4.6mph /  7.4km/h 65% 0in /  0.0mm CLR
10:55 80.6 °F /  27.0 °C 67.3 °F /  19.6 °C 30in /  1015.1hPa SSE 2mph /  3.2km/h 9mph /  14.5km/h 64% 0in /  0.0mm CLR
11:00 80.4 °F /  26.9 °C 67.3 °F /  19.6 °C 30in /  1015.1hPa SSW 3mph /  4.8km/h 5mph /  8.0km/h 64% 0in /  0.0mm CLR
11:05 81.1 °F /  27.3 °C 67.3 °F /  19.6 °C 30in /  1015.0hPa South 3mph /  4.8km/h 7mph /  11.3km/h 63% 0in /  0.0mm CLR
11:10 81.3 °F /  27.4 °C 67.5 °F /  19.7 °C 30in /  1015.0hPa SE 3.1mph /  5.0km/h 5.4mph /  8.7km/h 63% 0in /  0.0mm CLR
11:15 81.7 °F /  27.6 °C 67.5 °F /  19.7 °C 30in /  1015.0hPa SE 3mph /  4.8km/h 8mph /  12.9km/h 62% 0in /  0.0mm CLR
11:20 81.3 °F /  27.4 °C 66.6 °F /  19.2 °C 30in /  1014.9hPa ESE 5mph /  8.0km/h 8mph /  12.9km/h 61% 0in /  0.0mm CLR
11:25 81.7 °F /  27.6 °C 67.5 °F /  19.7 °C 30in /  1014.9hPa East 5mph /  8.0km/h 7mph /  11.3km/h 62% 0in /  0.0mm CLR
11:30 82 °F /  27.8 °C 66.7 °F /  19.3 °C 30in /  1014.9hPa SE 4.3mph /  6.9km/h 6.9mph /  11.1km/h 60% 0in /  0.0mm CLR
11:35 82 °F /  27.8 °C 66.7 °F /  19.3 °C 30in /  1014.9hPa ESE 5mph /  8.0km/h 9mph /  14.5km/h 60% 0in /  0.0mm CLR
11:40 82.2 °F /  27.9 °C 67.5 °F /  19.7 °C 30in /  1014.9hPa NNE 4.3mph /  6.9km/h 4.6mph /  7.4km/h 61% 0in /  0.0mm CLR
11:45 82.8 °F /  28.2 °C 66.4 °F /  19.1 °C 30in /  1014.9hPa ESE 5mph /  8.0km/h 8mph /  12.9km/h 58% 0in /  0.0mm CLR
11:50 82.8 °F /  28.2 °C 66.6 °F /  19.2 °C 30in /  1015.0hPa North 4mph /  6.4km/h 5.8mph /  9.3km/h 58% 0in /  0.0mm CLR
11:55 82.8 °F /  28.2 °C 66.6 °F /  19.2 °C 30in /  1015.0hPa NE 5mph /  8.0km/h 6mph /  9.7km/h 58% 0in /  0.0mm CLR
12:00 83.1 °F /  28.4 °C 66.7 °F /  19.3 °C 30in /  1015.0hPa NNE 3mph /  4.8km/h 7mph /  11.3km/h 58% 0in /  0.0mm CLR
12:05 83.7 °F /  28.7 °C 67.3 °F /  19.6 °C 30in /  1014.9hPa NNE 3mph /  4.8km/h 6mph /  9.7km/h 58% 0in /  0.0mm CLR
12:10 83.7 °F /  28.7 °C 66.4 °F /  19.1 °C 30in /  1014.9hPa NNW 3mph /  4.8km/h 6mph /  9.7km/h 56% 0in /  0.0mm CLR
12:15 83.8 °F /  28.8 °C 66.6 °F /  19.2 °C 30in /  1014.9hPa SE 3.1mph /  5.0km/h 4.6mph /  7.4km/h 56% 0in /  0.0mm CLR
12:20 84.4 °F /  29.1 °C 65.8 °F /  18.8 °C 30in /  1014.8hPa ENE 3.1mph /  5.0km/h 6.9mph /  11.1km/h 54% 0in /  0.0mm CLR
12:25 84.4 °F /  29.1 °C 65.8 °F /  18.8 °C 30in /  1014.8hPa NNE 3mph /  4.8km/h 7mph /  11.3km/h 54% 0in /  0.0mm CLR
12:30 84.6 °F /  29.2 °C 65.5 °F /  18.6 °C 30in /  1014.8hPa NNE 4mph /  6.4km/h 5.8mph /  9.3km/h 53% 0in /  0.0mm CLR
12:35 84.7 °F /  29.3 °C 65.7 °F /  18.7 °C 30in /  1014.7hPa NNE 5mph /  8.0km/h 7mph /  11.3km/h 53% 0in /  0.0mm CLR
12:40 84.7 °F /  29.3 °C 66.4 °F /  19.1 °C 30in /  1014.7hPa NE 5mph /  8.0km/h 12mph /  19.3km/h 54% 0in /  0.0mm CLR
12:45 84.6 °F /  29.2 °C 66.6 °F /  19.2 °C 30in /  1014.7hPa NNE 5mph /  8.0km/h 12mph /  19.3km/h 55% 0in /  0.0mm CLR
12:50 84.9 °F /  29.4 °C 66.9 °F /  19.4 °C 30in /  1014.6hPa NNW 4.7mph /  7.6km/h 6.4mph /  10.3km/h 55% 0in /  0.0mm CLR
12:55 85.3 °F /  29.6 °C 66.7 °F /  19.3 °C 30in /  1014.6hPa NNE 5mph /  8.0km/h 8mph /  12.9km/h 54% 0in /  0.0mm CLR
13:00 85.3 °F /  29.6 °C 67.3 °F /  19.6 °C 30in /  1014.6hPa NE 5mph /  8.0km/h 7mph /  11.3km/h 55% 0in /  0.0mm CLR
13:05 85.5 °F /  29.7 °C 66.9 °F /  19.4 °C 30in /  1014.6hPa NE 5mph /  8.0km/h 12mph /  19.3km/h 54% 0in /  0.0mm CLR
13:10 85.6 °F /  29.8 °C 67.1 °F /  19.5 °C 30in /  1014.6hPa NE 4.7mph /  7.6km/h 4.6mph /  7.4km/h 54% 0in /  0.0mm CLR
13:15 86 °F /  30.0 °C 67.5 °F /  19.7 °C 30in /  1014.6hPa ESE 5mph /  8.0km/h 10mph /  16.1km/h 54% 0in /  0.0mm CLR
13:20 86 °F /  30.0 °C 67.5 °F /  19.7 °C 30in /  1014.4hPa ENE 5.2mph /  8.4km/h 10.4mph /  16.7km/h 54% 0in /  0.0mm CLR
13:25 86.2 °F /  30.1 °C 68.2 °F /  20.1 °C 30in /  1014.4hPa NE 5mph /  8.0km/h 10mph /  16.1km/h 55% 0in /  0.0mm CLR
13:30 86.5 °F /  30.3 °C 67.5 °F /  19.7 °C 30in /  1014.4hPa NE 5mph /  8.0km/h 11mph /  17.7km/h 53% 0in /  0.0mm CLR
13:35 86.5 °F /  30.3 °C 67.8 °F /  19.9 °C 30in /  1014.3hPa NNE 5mph /  8.0km/h 9mph /  14.5km/h 54% 0in /  0.0mm CLR
13:40 86.9 °F /  30.5 °C 68.4 °F /  20.2 °C 30in /  1014.3hPa NNE 6mph /  9.7km/h 13mph /  20.9km/h 54% 0in /  0.0mm CLR
13:45 87.1 °F /  30.6 °C 67.8 °F /  19.9 °C 30in /  1014.3hPa NNE 6mph /  9.7km/h 13mph /  20.9km/h 53% 0in /  0.0mm CLR
13:50 87.1 °F /  30.6 °C 67.8 °F /  19.9 °C 29.9in /  1014.1hPa NE 6mph /  9.7km/h 10mph /  16.1km/h 53% 0in /  0.0mm CLR
13:55 87.4 °F /  30.8 °C 67.6 °F /  19.8 °C 29.9in /  1014.1hPa NNE 6mph /  9.7km/h 11mph /  17.7km/h 52% 0in /  0.0mm CLR
14:00 87.8 °F /  31.0 °C 66.7 °F /  19.3 °C 29.9in /  1014.1hPa NNE 7mph /  11.3km/h 13mph /  20.9km/h 50% 0in /  0.0mm CLR
14:05 88.2 °F /  31.2 °C 67.3 °F /  19.6 °C 29.9in /  1014.0hPa NE 7mph /  11.3km/h 15mph /  24.1km/h 50% 0in /  0.0mm CLR
14:10 88 °F /  31.1 °C 66.9 °F /  19.4 °C 29.9in /  1014.0hPa North 8.1mph /  13.0km/h 12.7mph /  20.4km/h 50% 0in /  0.0mm CLR
14:15 88.2 °F /  31.2 °C 67.8 °F /  19.9 °C 29.9in /  1014.0hPa NE 8.1mph /  13.0km/h 9.2mph /  14.8km/h 51% 0in /  0.0mm CLR
14:20 88.3 °F /  31.3 °C 67.3 °F /  19.6 °C 29.9in /  1013.8hPa NE 7.6mph /  12.2km/h 12.7mph /  20.4km/h 50% 0in /  0.0mm CLR
14:25 88.3 °F /  31.3 °C 67.8 °F /  19.9 °C 29.9in /  1013.8hPa NE 8mph /  12.9km/h 17mph /  27.4km/h 51% 0in /  0.0mm CLR
14:30 88.3 °F /  31.3 °C 67.8 °F /  19.9 °C 29.9in /  1013.8hPa NE 9.2mph /  14.8km/h 18.4mph /  29.6km/h 51% 0in /  0.0mm CLR
14:35 88.5 °F /  31.4 °C 67.6 °F /  19.8 °C 29.9in /  1013.7hPa NE 9mph /  14.5km/h 16mph /  25.7km/h 50% 0in /  0.0mm CLR
14:40 89.1 °F /  31.7 °C 68 °F /  20.0 °C 29.9in /  1013.7hPa NE 7mph /  11.3km/h 15mph /  24.1km/h 50% 0in /  0.0mm CLR
14:45 89.2 °F /  31.8 °C 68.2 °F /  20.1 °C 29.9in /  1013.7hPa NE 7mph /  11.3km/h 13mph /  20.9km/h 50% 0in /  0.0mm CLR
14:50 89.1 °F /  31.7 °C 68 °F /  20.0 °C 29.9in /  1013.6hPa ENE 8.1mph /  13.0km/h 9.2mph /  14.8km/h 50% 0in /  0.0mm CLR
14:55 89.2 °F /  31.8 °C 68.2 °F /  20.1 °C 29.9in /  1013.6hPa NE 8mph /  12.9km/h 17mph /  27.4km/h 50% 0in /  0.0mm CLR
15:00 89.8 °F /  32.1 °C 68.2 °F /  20.1 °C 29.9in /  1013.6hPa NE 8mph /  12.9km/h 15mph /  24.1km/h 49% 0in /  0.0mm CLR
15:05 90.1 °F /  32.3 °C 67.8 °F /  19.9 °C 29.9in /  1013.5hPa NE 8mph /  12.9km/h 13mph /  20.9km/h 48% 0in /  0.0mm CLR
15:10 90 °F /  32.2 °C 66.9 °F /  19.4 °C 29.9in /  1013.5hPa NNE 8.5mph /  13.7km/h 20.7mph /  33.3km/h 47% 0in /  0.0mm CLR
15:15 89.6 °F /  32.0 °C 67.3 °F /  19.6 °C 29.9in /  1013.5hPa NE 8mph /  12.9km/h 21mph /  33.8km/h 48% 0in /  0.0mm CLR
15:20 89.8 °F /  32.1 °C 66.9 °F /  19.4 °C 29.9in /  1013.3hPa NE 10mph /  16.1km/h 17mph /  27.4km/h 47% 0in /  0.0mm CLR
15:25 90 °F /  32.2 °C 66.9 °F /  19.4 °C 29.9in /  1013.3hPa ESE 10.2mph /  16.4km/h 12.7mph /  20.4km/h 47% 0in /  0.0mm CLR
15:30 90.3 °F /  32.4 °C 67.5 °F /  19.7 °C 29.9in /  1013.3hPa NNE 9.2mph /  14.8km/h 15mph /  24.1km/h 47% 0in /  0.0mm CLR
15:35 90.3 °F /  32.4 °C 67.3 °F /  19.6 °C 29.9in /  1013.1hPa NE 9mph /  14.5km/h 17mph /  27.4km/h 47% 0in /  0.0mm CLR
15:40 90 °F /  32.2 °C 66.9 °F /  19.4 °C 29.9in /  1013.1hPa NE 8.7mph /  14.0km/h 20.7mph /  33.3km/h 47% 0in /  0.0mm CLR
15:45 90.1 °F /  32.3 °C 67.3 °F /  19.6 °C 29.9in /  1013.1hPa NE 9mph /  14.5km/h 17mph /  27.4km/h 47% 0in /  0.0mm CLR
15:50 90.1 °F /  32.3 °C 67.3 °F /  19.6 °C 29.9in /  1013.2hPa ENE 11.2mph /  18.0km/h 12.7mph /  20.4km/h 47% 0in /  0.0mm CLR
15:55 90.5 °F /  32.5 °C 67.5 °F /  19.7 °C 29.9in /  1013.2hPa NE 12mph /  19.3km/h 15mph /  24.1km/h 47% 0in /  0.0mm CLR
16:00 90.7 °F /  32.6 °C 67.1 °F /  19.5 °C 29.9in /  1013.2hPa NE 9mph /  14.5km/h 17mph /  27.4km/h 46% 0in /  0.0mm CLR
16:05 90.3 °F /  32.4 °C 67.3 °F /  19.6 °C 29.9in /  1012.9hPa NE 9mph /  14.5km/h 21mph /  33.8km/h 47% 0in /  0.0mm CLR
16:10 90.3 °F /  32.4 °C 66.7 °F /  19.3 °C 29.9in /  1012.9hPa ENE 11.2mph /  18.0km/h 17.3mph /  27.8km/h 46% 0in /  0.0mm CLR
16:15 90.5 °F /  32.5 °C 66.9 °F /  19.4 °C 29.9in /  1012.9hPa NE 12mph /  19.3km/h 19mph /  30.6km/h 46% 0in /  0.0mm CLR
16:20 90.3 °F /  32.4 °C 66.7 °F /  19.3 °C 29.9in /  1012.6hPa NE 11.8mph /  19.0km/h 15mph /  24.1km/h 46% 0in /  0.0mm CLR
16:25 90.7 °F /  32.6 °C 66.4 °F /  19.1 °C 29.9in /  1012.6hPa NE 12mph /  19.3km/h 17mph /  27.4km/h 45% 0in /  0.0mm CLR
16:30 90.7 °F /  32.6 °C 66.4 °F /  19.1 °C 29.9in /  1012.6hPa NE 10mph /  16.1km/h 12.7mph /  20.4km/h 45% 0in /  0.0mm CLR
16:35 91 °F /  32.8 °C 66.7 °F /  19.3 °C 29.9in /  1012.5hPa NE 10mph /  16.1km/h 17mph /  27.4km/h 45% 0in /  0.0mm CLR
16:40 90.9 °F /  32.7 °C 65.8 °F /  18.8 °C 29.9in /  1012.5hPa NE 10mph /  16.1km/h 17mph /  27.4km/h 44% 0in /  0.0mm CLR
16:45 90.7 °F /  32.6 °C 65.8 °F /  18.8 °C 29.9in /  1012.5hPa NE 10mph /  16.1km/h 19mph /  30.6km/h 44% 0in /  0.0mm CLR
16:50 90.7 °F /  32.6 °C 66.4 °F /  19.1 °C 29.9in /  1012.2hPa East 11.2mph /  18.0km/h 16.1mph /  25.9km/h 45% 0in /  0.0mm CLR
16:55 90.9 °F /  32.7 °C 65.8 °F /  18.8 °C 29.9in /  1012.2hPa NE 12mph /  19.3km/h 16mph /  25.7km/h 44% 0in /  0.0mm CLR
17:00 91 °F /  32.8 °C 66 °F /  18.9 °C 29.9in /  1012.2hPa NE 10mph /  16.1km/h 20mph /  32.2km/h 44% 0in /  0.0mm CLR
17:05 90.9 °F /  32.7 °C 65.8 °F /  18.8 °C 29.9in /  1012.1hPa NE 10mph /  16.1km/h 16mph /  25.7km/h 44% 0in /  0.0mm CLR
17:10 91.2 °F /  32.9 °C 66.4 °F /  19.1 °C 29.9in /  1012.1hPa NE 10mph /  16.1km/h 17mph /  27.4km/h 44% 0in /  0.0mm CLR
17:15 90.7 °F /  32.6 °C 65.7 °F /  18.7 °C 29.9in /  1012.1hPa NE 10mph /  16.1km/h 21mph /  33.8km/h 44% 0in /  0.0mm CLR
17:20 90.7 °F /  32.6 °C 65.8 °F /  18.8 °C 29.9in /  1011.9hPa East 12.5mph /  20.1km/h 12.7mph /  20.4km/h 44% 0in /  0.0mm CLR
17:25 91 °F /  32.8 °C 65.5 °F /  18.6 °C 29.9in /  1011.9hPa NE 13mph /  20.9km/h 17mph /  27.4km/h 43% 0in /  0.0mm CLR
17:30 90.7 °F /  32.6 °C 66.4 °F /  19.1 °C 29.9in /  1011.9hPa NE 11.4mph /  18.3km/h 16.1mph /  25.9km/h 45% 0in /  0.0mm CLR
17:35 90.7 °F /  32.6 °C 66.4 °F /  19.1 °C 29.9in /  1011.8hPa NE 11.4mph /  18.3km/h 13.8mph /  22.2km/h 45% 0in /  0.0mm CLR
17:40 90.5 °F /  32.5 °C 66.4 °F /  19.1 °C 29.9in /  1011.8hPa NNE 11.8mph /  19.0km/h 15mph /  24.1km/h 45% 0in /  0.0mm CLR
17:45 90.7 °F /  32.6 °C 66.6 °F /  19.2 °C 29.9in /  1011.8hPa NE 12mph /  19.3km/h 19mph /  30.6km/h 45% 0in /  0.0mm CLR
17:50 90.7 °F /  32.6 °C 66.4 °F /  19.1 °C 29.9in /  1011.5hPa NNE 10mph /  16.1km/h 21.9mph /  35.2km/h 45% 0in /  0.0mm CLR
17:55 90.5 °F /  32.5 °C 66.4 °F /  19.1 °C 29.9in /  1011.5hPa NE 10mph /  16.1km/h 22mph /  35.4km/h 45% 0in /  0.0mm CLR
18:00 90.5 °F /  32.5 °C 66.4 °F /  19.1 °C 29.9in /  1011.5hPa NE 12mph /  19.3km/h 17mph /  27.4km/h 45% 0in /  0.0mm CLR
18:05 90.3 °F /  32.4 °C 66.7 °F /  19.3 °C 29.9in /  1011.8hPa NE 12mph /  19.3km/h 17mph /  27.4km/h 46% 0in /  0.0mm CLR
18:10 90.3 °F /  32.4 °C 66.7 °F /  19.3 °C 29.9in /  1011.8hPa NNE 11.4mph /  18.3km/h 20.7mph /  33.3km/h 46% 0in /  0.0mm CLR
18:15 90 °F /  32.2 °C 66.9 °F /  19.4 °C 29.9in /  1011.8hPa NE 12mph /  19.3km/h 20mph /  32.2km/h 47% 0in /  0.0mm CLR
18:20 89.8 °F /  32.1 °C 67.5 °F /  19.7 °C 29.9in /  1011.6hPa NNE 12.3mph /  19.8km/h 11.5mph /  18.5km/h 48% 0in /  0.0mm CLR
18:25 90 °F /  32.2 °C 66.9 °F /  19.4 °C 29.9in /  1011.6hPa NE 13mph /  20.9km/h 17mph /  27.4km/h 47% 0in /  0.0mm CLR
18:30 90 °F /  32.2 °C 67.6 °F /  19.8 °C 29.9in /  1011.6hPa NE 10mph /  16.1km/h 18mph /  29.0km/h 48% 0in /  0.0mm CLR
18:35 90 °F /  32.2 °C 67.6 °F /  19.8 °C 29.9in /  1011.3hPa NE 10mph /  16.1km/h 17mph /  27.4km/h 48% 0in /  0.0mm CLR
18:40 89.8 °F /  32.1 °C 67.5 °F /  19.7 °C 29.9in /  1011.3hPa NE 10.7mph /  17.2km/h 16.1mph /  25.9km/h 48% 0in /  0.0mm CLR
18:45 89.4 °F /  31.9 °C 67.3 °F /  19.6 °C 29.9in /  1011.3hPa NE 10mph /  16.1km/h 18mph /  29.0km/h 48% 0in /  0.0mm CLR
18:50 89.4 °F /  31.9 °C 67.1 °F /  19.5 °C 29.9in /  1011.4hPa ENE 10.2mph /  16.4km/h 17.3mph /  27.8km/h 48% 0in /  0.0mm CLR
18:55 89.4 °F /  31.9 °C 67.1 °F /  19.5 °C 29.9in /  1011.4hPa NE 10mph /  16.1km/h 16mph /  25.7km/h 48% 0in /  0.0mm CLR
19:00 89.8 °F /  32.1 °C 67.5 °F /  19.7 °C 29.9in /  1011.4hPa NE 9mph /  14.5km/h 16mph /  25.7km/h 48% 0in /  0.0mm CLR
19:05 89.8 °F /  32.1 °C 67.5 °F /  19.7 °C 29.9in /  1011.3hPa NE 9mph /  14.5km/h 16mph /  25.7km/h 48% 0in /  0.0mm CLR
19:10 89.8 °F /  32.1 °C 67.5 °F /  19.7 °C 29.9in /  1011.3hPa NE 9mph /  14.5km/h 16mph /  25.7km/h 48% 0in /  0.0mm CLR
19:15 90 °F /  32.2 °C 67.6 °F /  19.8 °C 29.9in /  1011.3hPa ENE 9mph /  14.5km/h 12mph /  19.3km/h 48% 0in /  0.0mm CLR
19:20 89.8 °F /  32.1 °C 67.5 °F /  19.7 °C 29.9in /  1011.3hPa ENE 6.9mph /  11.1km/h 10.4mph /  16.7km/h 48% 0in /  0.0mm CLR
19:25 89.8 °F /  32.1 °C 66.2 °F /  19.0 °C 29.9in /  1011.3hPa ENE 7mph /  11.3km/h 13mph /  20.9km/h 46% 0in /  0.0mm CLR
19:30 89.8 °F /  32.1 °C 66.9 °F /  19.4 °C 29.9in /  1011.3hPa East 6.4mph /  10.3km/h 6.2mph /  10.0km/h 47% 0in /  0.0mm CLR
19:35 89.8 °F /  32.1 °C 66.9 °F /  19.4 °C 29.9in /  1011.2hPa ESE 7mph /  11.3km/h 7mph /  11.3km/h 47% 0in /  0.0mm CLR
19:40 89.4 °F /  31.9 °C 65.8 °F /  18.8 °C 29.9in /  1011.2hPa ESE 5.4mph /  8.7km/h 12.7mph /  20.4km/h 46% 0in /  0.0mm CLR
19:45 89.2 °F /  31.8 °C 66.4 °F /  19.1 °C 29.9in /  1011.2hPa ESE 6mph /  9.7km/h 12mph /  19.3km/h 47% 0in /  0.0mm CLR
19:50 89.1 °F /  31.7 °C 66.2 °F /  19.0 °C 29.9in /  1011.3hPa ESE 6.9mph /  11.1km/h 10.7mph /  17.2km/h 47% 0in /  0.0mm CLR
19:55 88.9 °F /  31.6 °C 66 °F /  18.9 °C 29.9in /  1011.3hPa ESE 7mph /  11.3km/h 11mph /  17.7km/h 47% 0in /  0.0mm CLR
20:00 88.9 °F /  31.6 °C 66.6 °F /  19.2 °C 29.9in /  1011.3hPa SE 7mph /  11.3km/h 15mph /  24.1km/h 48% 0in /  0.0mm CLR
20:05 88.3 °F /  31.3 °C 66.7 °F /  19.3 °C 29.9in /  1011.5hPa SE 7mph /  11.3km/h 15mph /  24.1km/h 49% 0in /  0.0mm CLR
20:10 88 °F /  31.1 °C 66.9 °F /  19.4 °C 29.9in /  1011.5hPa SE 9mph /  14.5km/h 17mph /  27.4km/h 50% 0in /  0.0mm CLR
20:15 87.4 °F /  30.8 °C 67.1 °F /  19.5 °C 29.9in /  1011.5hPa ESE 9mph /  14.5km/h 14mph /  22.5km/h 51% 0in /  0.0mm CLR
20:20 87.1 °F /  30.6 °C 66.7 °F /  19.3 °C 29.9in /  1011.7hPa ESE 9.7mph /  15.6km/h 15mph /  24.1km/h 51% 0in /  0.0mm CLR
20:25 86.9 °F /  30.5 °C 66.6 °F /  19.2 °C 29.9in /  1011.7hPa ESE 9mph /  14.5km/h 15mph /  24.1km/h 51% 0in /  0.0mm CLR
20:30 86.5 °F /  30.3 °C 66.7 °F /  19.3 °C 29.9in /  1011.7hPa SE 10mph /  16.1km/h 11.5mph /  18.5km/h 52% 0in /  0.0mm CLR
20:35 86.4 °F /  30.2 °C 66.7 °F /  19.3 °C 29.9in /  1012.0hPa ESE 10mph /  16.1km/h 20mph /  32.2km/h 52% 0in /  0.0mm CLR
20:40 85.8 °F /  29.9 °C 66.7 °F /  19.3 °C 29.9in /  1012.0hPa SE 10mph /  16.1km/h 22mph /  35.4km/h 53% 0in /  0.0mm CLR
20:45 85.6 °F /  29.8 °C 67.1 °F /  19.5 °C 29.9in /  1012.0hPa SE 10mph /  16.1km/h 17mph /  27.4km/h 54% 0in /  0.0mm CLR
20:50 85.3 °F /  29.6 °C 66.7 °F /  19.3 °C 29.9in /  1012.6hPa ESE 10.2mph /  16.4km/h 16.1mph /  25.9km/h 54% 0in /  0.0mm CLR
20:55 84.9 °F /  29.4 °C 67.5 °F /  19.7 °C 29.9in /  1012.6hPa ESE 10mph /  16.1km/h 18mph /  29.0km/h 56% 0in /  0.0mm CLR
21:00 84.4 °F /  29.1 °C 68 °F /  20.0 °C 29.9in /  1012.6hPa ESE 12mph /  19.3km/h 20mph /  32.2km/h 58% 0in /  0.0mm CLR
21:05 83.8 °F /  28.8 °C 68.5 °F /  20.3 °C 29.9in /  1012.6hPa ESE 12mph /  19.3km/h 15mph /  24.1km/h 60% 0in /  0.0mm CLR
21:10 83.8 °F /  28.8 °C 69.1 °F /  20.6 °C 29.9in /  1012.6hPa ESE 9mph /  14.5km/h 12mph /  19.3km/h 61% 0in /  0.0mm CLR
21:15 83.7 °F /  28.7 °C 69.3 °F /  20.7 °C 29.9in /  1012.6hPa East 8.7mph /  14.0km/h 11.5mph /  18.5km/h 62% 0in /  0.0mm CLR
21:20 83.5 °F /  28.6 °C 70 °F /  21.1 °C 29.9in /  1012.7hPa ESE 7.6mph /  12.2km/h 10.4mph /  16.7km/h 64% 0in /  0.0mm CLR
21:25 83.5 °F /  28.6 °C 70.3 °F /  21.3 °C 29.9in /  1012.7hPa ESE 8mph /  12.9km/h 13mph /  20.9km/h 65% 0in /  0.0mm CLR
21:30 82.9 °F /  28.3 °C 70.3 °F /  21.3 °C 29.9in /  1012.7hPa ESE 7.6mph /  12.2km/h 9.2mph /  14.8km/h 66% 0in /  0.0mm CLR
21:35 82.8 °F /  28.2 °C 70.3 °F /  21.3 °C 29.9in /  1012.9hPa ESE 8mph /  12.9km/h 14mph /  22.5km/h 66% 0in /  0.0mm CLR
21:40 82.6 °F /  28.1 °C 70.5 °F /  21.4 °C 29.9in /  1012.9hPa ESE 6.4mph /  10.3km/h 11.5mph /  18.5km/h 67% 0in /  0.0mm CLR
21:43 82.4 °F /  28.0 °C 70.9 °F /  21.6 °C 29.9in /  1012.9hPa ESE 6.4mph /  10.3km/h 10.4mph /  16.7km/h 68% 0in /  0.0mm CLR
22:00 81.9 °F /  27.7 °C 70.7 °F /  21.5 °C 29.9in /  1012.9hPa ESE 6.2mph /  10.0km/h 10.4mph /  16.7km/h 69% 0in /  0.0mm CLR
22:05 81.9 °F /  27.7 °C 70.7 °F /  21.5 °C 29.9in /  1012.8hPa ENE 6.2mph /  10.0km/h 8.1mph /  13.0km/h 69% 0in /  0.0mm CLR
22:10 81.9 °F /  27.7 °C 70.7 °F /  21.5 °C 29.9in /  1012.8hPa ESE 5.2mph /  8.4km/h 6.9mph /  11.1km/h 69% 0in /  0.0mm CLR
22:15 81.7 °F /  27.6 °C 70.5 °F /  21.4 °C 29.9in /  1012.8hPa ESE 5.2mph /  8.4km/h 5.8mph /  9.3km/h 69% 0in /  0.0mm CLR
22:20 81.9 °F /  27.7 °C 70.7 °F /  21.5 °C 29.9in /  1013.1hPa NE 4.3mph /  6.9km/h 5.8mph /  9.3km/h 69% 0in /  0.0mm CLR
22:25 81.9 °F /  27.7 °C 70.7 °F /  21.5 °C 29.9in /  1013.1hPa ESE 4.3mph /  6.9km/h 5.4mph /  8.7km/h 69% 0in /  0.0mm CLR
22:30 82 °F /  27.8 °C 70.9 °F /  21.6 °C 29.9in /  1013.1hPa East 3.1mph /  5.0km/h 5.8mph /  9.3km/h 69% 0in /  0.0mm CLR
22:35 81.9 °F /  27.7 °C 70.7 °F /  21.5 °C 29.9in /  1013.4hPa ESE 3.1mph /  5.0km/h 2.3mph /  3.7km/h 69% 0in /  0.0mm CLR
22:40 81.9 °F /  27.7 °C 70.7 °F /  21.5 °C 29.9in /  1013.4hPa NE 2.4mph /  3.9km/h 4.6mph /  7.4km/h 69% 0in /  0.0mm CLR
22:45 81.7 °F /  27.6 °C 70.5 °F /  21.4 °C 29.9in /  1013.4hPa NE 2.4mph /  3.9km/h 3.5mph /  5.6km/h 69% 0in /  0.0mm CLR
22:50 81.3 °F /  27.4 °C 70.5 °F /  21.4 °C 29.9in /  1013.6hPa ENE 2.9mph /  4.7km/h 4.6mph /  7.4km/h 70% 0in /  0.0mm CLR
22:55 81.1 °F /  27.3 °C 70.3 °F /  21.3 °C 29.9in /  1013.6hPa NE 2.9mph /  4.7km/h 4.6mph /  7.4km/h 70% 0in /  0.0mm CLR
23:00 81.1 °F /  27.3 °C 70.9 °F /  21.6 °C 29.9in /  1013.6hPa NE 3.1mph /  5.0km/h 4.6mph /  7.4km/h 71% 0in /  0.0mm CLR
23:05 81 °F /  27.2 °C 70.7 °F /  21.5 °C 29.9in /  1013.7hPa NE 3.1mph /  5.0km/h 4.7mph /  7.6km/h 71% 0in /  0.0mm CLR
23:10 81 °F /  27.2 °C 70.7 °F /  21.5 °C 29.9in /  1013.7hPa NNE 3.6mph /  5.8km/h 5.8mph /  9.3km/h 71% 0in /  0.0mm CLR
23:15 80.6 °F /  27.0 °C 70.7 °F /  21.5 °C 29.9in /  1013.7hPa NNE 3.6mph /  5.8km/h 8.1mph /  13.0km/h 72% 0in /  0.0mm CLR
23:20 80.4 °F /  26.9 °C 70.5 °F /  21.4 °C 29.9in /  1013.7hPa NNE 5.2mph /  8.4km/h 5.8mph /  9.3km/h 72% 0in /  0.0mm CLR
23:25 80.2 °F /  26.8 °C 70.3 °F /  21.3 °C 29.9in /  1013.7hPa NNE 5.2mph /  8.4km/h 4.6mph /  7.4km/h 72% 0in /  0.0mm CLR
23:30 80.2 °F /  26.8 °C 70.3 °F /  21.3 °C 29.9in /  1013.7hPa NE 3.1mph /  5.0km/h 4.6mph /  7.4km/h 72% 0in /  0.0mm CLR
23:35 80.2 °F /  26.8 °C 70.3 °F /  21.3 °C 29.9in /  1013.9hPa NE 3.1mph /  5.0km/h 4mph /  6.4km/h 72% 0in /  0.0mm CLR
23:40 80.2 °F /  26.8 °C 70.3 °F /  21.3 °C 29.9in /  1013.9hPa ESE 3.1mph /  5.0km/h 3.5mph /  5.6km/h 72% 0in /  0.0mm CLR
23:45 80.4 °F /  26.9 °C 70.5 °F /  21.4 °C 29.9in /  1013.9hPa ESE 3.1mph /  5.0km/h 4.6mph /  7.4km/h 72% 0in /  0.0mm CLR
23:50 80.4 °F /  26.9 °C 70.5 °F /  21.4 °C 29.9in /  1014.0hPa SE 3.6mph /  5.8km/h 6.9mph /  11.1km/h 72% 0in /  0.0mm CLR
23:55 80.2 °F /  26.8 °C 70.9 °F /  21.6 °C 29.9in /  1014.0hPa SE 3.6mph /  5.8km/h 4.6mph /  7.4km/h 73% 0in /  0.0mm CLR
Murcia-Puente Tocinos, España
Compliments of Weather Underground - 2.75 mb

La estación de MeteoMurcia.com, publica sus datos en los siguientes proyectos:

Weather Underground PWS IMURCIAP2 Meteoclimatic www.awekas.at

W3Counter
Web Analytics